Time;durP1;ratioP1;P1;durP2;ratioP2;P2;SDS_P1;SDS_P2;PMS_P1;PMS_P2;Temp;Humidity;BMP_temperature;BMP_pressure;BME280_temperature;BME280_humidity;BME280_pressure;Samples;Min_cycle;Max_cycle;Signal;HPM_P1;HPM_P2
2022/04/23 02:03:14;;;;;;;29.27;19.53;;;;;;;-145.18;100.00;46552.97;5022069;23;20339;-70
2022/04/23 02:05:39;;;;;;;28.50;19.83;;;;;;;-145.18;100.00;46551.00;5002463;28;20327;-70
2022/04/23 02:08:05;;;;;;;27.13;19.60;;;;;;;-145.18;100.00;46551.00;5011158;28;20065;-70
2022/04/23 02:10:30;;;;;;;26.40;20.23;;;;;;;-145.18;100.00;46551.00;5012309;28;20183;-71
2022/04/23 02:12:56;;;;;;;22.83;18.03;;;;;;;-145.18;100.00;46554.91;5011383;28;20034;-70
2022/04/23 02:15:22;;;;;;;26.90;18.77;;;;;;;-145.18;100.00;46551.00;5011748;28;20037;-70
2022/04/23 02:17:49;;;;;;;29.73;20.43;;;;;;;-145.18;100.00;46552.97;5011185;28;20121;-70
2022/04/23 02:20:16;;;;;;;27.33;18.87;;;;;;;-145.18;100.00;46552.97;5011761;28;20673;-70
2022/04/23 02:22:42;;;;;;;30.93;21.40;;;;;;;-145.18;100.00;46560.78;5011365;28;20378;-70
2022/04/23 02:25:08;;;;;;;28.60;19.03;;;;;;;-145.18;100.00;46556.88;5011497;28;20278;-70
2022/04/23 02:27:41;;;;;;;28.50;21.60;;;;;;;-145.18;100.00;46560.78;5011274;28;20643;-70
2022/04/23 02:30:07;;;;;;;26.53;19.80;;;;;;;-145.18;100.00;46562.72;5011858;28;20325;-70
2022/04/23 02:32:32;;;;;;;31.27;20.63;;;;;;;-145.18;100.00;46564.69;5011185;28;20782;-70
2022/04/23 02:34:58;;;;;;;27.10;21.07;;;;;;;-145.18;100.00;46568.59;4993574;28;20276;-70
2022/04/23 02:37:29;;;;;;;31.00;21.70;;;;;;;-145.18;100.00;46568.59;4993561;28;20069;-70
2022/04/23 02:39:55;;;;;;;32.77;21.00;;;;;;;-145.18;100.00;46617.41;5011515;28;20121;-70
2022/04/23 02:42:20;;;;;;;29.17;22.37;;;;;;;-145.18;100.00;46625.22;5011120;28;20383;-70
2022/04/23 02:44:45;;;;;;;30.97;21.87;;;;;;;-145.18;100.00;46633.06;5011484;28;20037;-71
2022/04/23 02:47:11;;;;;;;32.07;23.20;;;;;;;-145.18;100.00;46642.81;5010618;28;20394;-71
2022/04/23 02:49:37;;;;;;;28.63;20.47;;;;;;;-145.18;100.00;46654.53;5011019;28;20406;-70
2022/04/23 02:52:02;;;;;;;31.87;21.97;;;;;;;-145.18;100.00;46660.41;5010828;28;20049;-70
2022/04/23 02:54:28;;;;;;;30.77;22.20;;;;;;;-145.18;100.00;46660.41;5011366;28;20028;-70
2022/04/23 02:56:55;;;;;;;30.83;22.43;;;;;;;-145.18;100.00;46660.41;5001265;28;20085;-70
2022/04/23 02:59:20;;;;;;;34.27;22.87;;;;;;;-145.18;100.00;46642.81;4991635;28;20065;-70
2022/04/23 03:01:46;;;;;;;34.10;23.73;;;;;;;-145.18;100.00;46650.63;4979621;28;20327;-70
2022/04/23 03:04:11;;;;;;;34.33;23.17;;;;;;;-145.18;100.00;46652.59;5010731;28;20046;-70
2022/04/23 03:06:37;;;;;;;32.70;23.83;;;;;;;-145.18;100.00;46652.59;5011111;28;20038;-70
2022/04/23 03:09:05;;;;;;;34.67;25.03;;;;;;;-145.18;100.00;46646.72;5010187;28;20557;-70
2022/04/23 03:11:30;;;;;;;32.30;21.77;;;;;;;-145.18;100.00;46650.63;5010987;28;20151;-70
2022/04/23 03:13:58;;;;;;;32.27;23.67;;;;;;;-145.18;100.00;46644.78;5010464;28;20279;-70
2022/04/23 03:16:24;;;;;;;35.13;24.70;;;;;;;-145.18;100.00;46652.59;4993717;28;20032;-70
2022/04/23 03:18:50;;;;;;;34.20;24.10;;;;;;;-145.18;100.00;46650.63;5010239;28;20657;-70
2022/04/23 03:21:16;;;;;;;32.13;22.43;;;;;;;-145.18;100.00;46650.63;5009974;28;20133;-70
2022/04/23 03:23:41;;;;;;;39.63;25.13;;;;;;;-145.18;100.00;46654.53;5010182;28;20322;-70
2022/04/23 03:26:07;;;;;;;37.23;25.70;;;;;;;-145.18;100.00;46656.50;5010651;28;20664;-70
2022/04/23 03:28:32;;;;;;;34.43;22.83;;;;;;;-145.18;100.00;46656.50;5009820;28;20122;-70
2022/04/23 03:30:57;;;;;;;33.30;23.83;;;;;;;-145.18;100.00;46650.63;5010220;28;20085;-70
2022/04/23 03:33:23;;;;;;;31.53;23.93;;;;;;;-145.18;100.00;46654.53;4992533;28;20041;-70
2022/04/23 03:35:48;;;;;;;34.40;23.30;;;;;;;-145.18;100.00;46654.53;5010170;28;20030;-70
2022/04/23 03:38:14;;;;;;;35.80;26.17;;;;;;;-145.18;100.00;46652.59;5009847;28;20080;-70
2022/04/23 03:40:40;;;;;;;34.43;25.37;;;;;;;-145.18;100.00;46656.50;5010280;28;20044;-70
2022/04/23 03:43:05;;;;;;;36.73;26.60;;;;;;;-145.18;100.00;46664.31;5009861;28;20294;-70
2022/04/23 03:45:36;;;;;;;38.07;25.63;;;;;;;-145.18;100.00;46666.25;5010251;28;20042;-70
2022/04/23 03:48:02;;;;;;;35.87;25.83;;;;;;;-145.18;100.00;46666.25;5009587;28;20034;-70
2022/04/23 03:50:28;;;;;;;37.00;26.43;;;;;;;-145.18;100.00;46662.34;5010234;28;20294;-70
2022/04/23 03:52:56;;;;;;;38.23;26.40;;;;;;;-145.18;100.00;46668.22;5009524;28;20049;-70
2022/04/23 03:55:21;;;;;;;37.63;26.03;;;;;;;-145.18;100.00;46668.22;5009959;28;20275;-70
2022/04/23 03:57:49;;;;;;;37.10;25.90;;;;;;;-145.18;100.00;46670.16;5009208;28;20271;-70
2022/04/23 04:00:16;;;;;;;39.73;27.37;;;;;;;-145.18;100.00;46674.06;5010402;28;20029;-71
2022/04/23 04:02:43;;;;;;;34.67;26.40;;;;;;;-145.18;100.00;46676.03;5008336;28;20292;-71
2022/04/23 04:05:10;;;;;;;42.30;25.80;;;;;;;-145.18;100.00;46672.13;5010245;28;20271;-70
2022/04/23 04:07:40;;;;;;;38.23;27.97;;;;;;;-145.18;100.00;46679.94;4991851;28;20404;-71
2022/04/23 04:10:05;;;;;;;35.70;26.00;;;;;;;-145.18;100.00;46677.97;5010111;28;20632;-71
2022/04/23 04:12:31;;;;;;;39.53;25.77;;;;;;;-145.18;100.00;46679.94;5009819;28;20282;-71
2022/04/23 04:14:57;;;;;;;42.03;27.53;;;;;;;-145.18;100.00;46674.06;5009702;28;20124;-70
2022/04/23 04:17:23;;;;;;;39.67;27.73;;;;;;;-145.18;100.00;46670.16;5009396;28;20518;-71
2022/04/23 04:19:49;;;;;;;38.43;26.60;;;;;;;-145.18;100.00;46672.13;5009526;28;20271;-70
2022/04/23 04:22:15;;;;;;;39.93;27.40;;;;;;;-145.18;100.00;46674.06;4992096;28;20667;-70
2022/04/23 04:24:40;;;;;;;39.33;27.97;;;;;;;-145.18;100.00;46672.13;4991986;28;20034;-70
2022/04/23 04:27:07;;;;;;;38.83;27.83;;;;;;;-145.18;100.00;46676.03;5009654;28;20034;-70
2022/04/23 04:29:32;;;;;;;41.17;29.67;;;;;;;-145.18;100.00;46674.06;5009571;28;20032;-71
2022/04/23 04:31:58;;;;;;;42.47;28.37;;;;;;;-145.18;100.00;46668.22;5008733;28;20276;-71
2022/04/23 04:34:28;;;;;;;38.97;27.77;;;;;;;-145.18;100.00;46666.25;5008049;28;20021;-71
2022/04/23 04:37:10;;;;;;;41.93;26.80;;;;;;;-145.18;100.00;46679.94;5008927;28;20410;-71
2022/04/23 04:39:37;;;;;;;39.70;27.03;;;;;;;-145.18;100.00;46677.97;5008911;28;20256;-71
2022/04/23 04:42:04;;;;;;;38.97;25.97;;;;;;;-145.18;100.00;46677.97;5006165;28;20862;-72
2022/04/23 04:44:30;;;;;;;41.20;28.57;;;;;;;-145.18;100.00;46676.03;5006817;28;20271;-70
2022/04/23 04:46:55;;;;;;;39.70;28.50;;;;;;;-145.18;100.00;46674.06;5008743;28;20279;-70
2022/04/23 04:49:22;;;;;;;36.93;26.93;;;;;;;-145.18;100.00;46674.06;5006458;28;20389;-70
2022/04/23 04:51:48;;;;;;;42.70;26.67;;;;;;;-145.18;100.00;46672.13;5006302;28;20042;-71
2022/04/23 04:54:14;;;;;;;44.73;28.50;;;;;;;-145.18;100.00;46677.97;5008722;28;20267;-71
2022/04/23 04:56:39;;;;;;;37.67;24.80;;;;;;;-145.18;100.00;46672.13;5008835;28;20279;-71
2022/04/23 04:59:05;;;;;;;40.00;27.43;;;;;;;-145.18;100.00;46670.16;5008520;28;20030;-71
2022/04/23 05:01:31;;;;;;;38.97;26.00;;;;;;;-145.18;100.00;46674.06;5005898;28;20037;-70
2022/04/23 05:03:57;;;;;;;41.63;27.43;;;;;;;-145.18;100.00;46674.06;5008639;28;20545;-70
2022/04/23 05:06:22;;;;;;;39.97;27.57;;;;;;;-145.18;100.00;46672.13;5009825;28;20375;-70
2022/04/23 05:08:47;;;;;;;37.80;28.23;;;;;;;-145.18;100.00;46674.06;5008596;28;20509;-70
2022/04/23 05:11:13;;;;;;;36.17;27.10;;;;;;;-145.18;100.00;46674.06;5009081;28;20112;-70
2022/04/23 05:13:39;;;;;;;39.47;27.10;;;;;;;-145.18;100.00;46670.16;5010831;28;20088;-70
2022/04/23 05:16:06;;;;;;;43.50;29.17;;;;;;;-145.18;100.00;46672.13;5013113;28;20069;-70
2022/04/23 05:18:32;;;;;;;40.43;27.60;;;;;;;-145.18;100.00;46674.06;5012592;28;20033;-70
2022/04/23 05:20:57;;;;;;;38.20;28.70;;;;;;;-145.18;100.00;46670.16;5009502;28;20403;-70
2022/04/23 05:23:23;;;;;;;35.60;25.23;;;;;;;-145.18;100.00;46668.22;4994047;28;20347;-71
2022/04/23 05:25:48;;;;;;;38.90;27.60;;;;;;;-145.18;100.00;46672.13;5012789;28;20041;-70
2022/04/23 05:28:14;;;;;;;35.47;23.57;;;;;;;-145.18;100.00;46662.34;5012363;28;20700;-71
2022/04/23 05:30:39;;;;;;;40.60;26.00;;;;;;;-145.18;100.00;46662.34;5009485;28;20475;-70
2022/04/23 05:33:06;;;;;;;38.70;27.73;;;;;;;-145.18;100.00;46656.50;5011796;28;20128;-71
2022/04/23 05:35:31;;;;;;;37.77;25.43;;;;;;;-145.18;100.00;46656.50;5012743;28;20037;-71
2022/04/23 05:37:57;;;;;;;37.73;28.03;;;;;;;-145.18;100.00;46652.59;4994205;28;20326;-71
2022/04/23 05:40:22;;;;;;;34.87;26.07;;;;;;;-145.18;100.00;46642.81;4994053;28;20469;-71
2022/04/23 05:42:47;;;;;;;35.20;26.47;;;;;;;-145.18;100.00;46644.78;5011227;28;20049;-71
2022/04/23 05:45:13;;;;;;;36.33;28.27;;;;;;;-145.18;100.00;46638.91;5012489;28;20117;-71
2022/04/23 05:47:41;;;;;;;40.43;27.90;;;;;;;-145.18;100.00;46638.91;5011767;28;20017;-71
2022/04/23 05:50:08;;;;;;;38.60;27.63;;;;;;;-145.18;100.00;46631.09;5012884;28;20168;-71
2022/04/23 05:52:35;;;;;;;37.47;28.47;;;;;;;-145.18;100.00;46625.22;5012064;28;20272;-71
2022/04/23 05:55:00;;;;;;;39.57;28.40;;;;;;;-145.18;100.00;46625.22;5012079;28;20276;-71
2022/04/23 05:57:25;;;;;;;39.70;27.80;;;;;;;-145.18;100.00;46615.47;5011134;28;20640;-71
2022/04/23 05:59:51;;;;;;;36.77;27.30;;;;;;;-145.18;100.00;46586.16;5011527;28;20037;-71
2022/04/23 06:02:16;;;;;;;36.97;27.00;;;;;;;-145.18;100.00;46588.13;5011570;28;20139;-71
2022/04/23 06:04:42;;;;;;;37.37;27.57;;;;;;;-145.18;100.00;46576.41;5011407;28;20041;-71
2022/04/23 06:07:07;;;;;;;38.23;28.40;;;;;;;-145.18;100.00;46562.72;5011989;28;20518;-71
2022/04/23 06:09:32;;;;;;;37.90;26.00;;;;;;;-145.18;100.00;46549.06;5011369;28;20038;-71
2022/04/23 06:11:58;;;;;;;35.73;26.73;;;;;;;-145.18;100.00;46537.34;5011387;28;20038;-71
2022/04/23 06:14:23;;;;;;;36.13;25.23;;;;;;;-145.18;100.00;46535.38;5011657;28;20041;-71
2022/04/23 06:16:48;;;;;;;38.67;28.60;;;;;;;-145.18;100.00;46529.53;5011757;28;20037;-71
2022/04/23 06:19:14;;;;;;;35.33;27.57;;;;;;;-145.18;100.00;46529.53;4993722;28;20138;-71
2022/04/23 06:21:39;;;;;;;33.60;25.17;;;;;;;-145.18;100.00;46525.63;5011160;28;20061;-71
2022/04/23 06:24:05;;;;;;;33.30;26.27;;;;;;;-145.18;100.00;46523.66;5010524;28;20042;-71
2022/04/23 06:26:31;;;;;;;36.43;27.50;;;;;;;-145.18;100.00;46521.72;5011161;28;20038;-71
2022/04/23 06:28:58;;;;;;;38.33;25.90;;;;;;;-145.18;100.00;46523.66;4992960;28;20030;-71
2022/04/23 06:31:23;;;;;;;39.00;28.83;;;;;;;-145.18;100.00;46523.66;5011756;28;20267;-71
2022/04/23 06:33:49;;;;;;;42.40;26.87;;;;;;;-145.18;100.00;46521.72;5010792;28;20290;-71
2022/04/23 06:36:14;;;;;;;36.10;25.33;;;;;;;-145.18;100.00;46533.44;4993702;28;20041;-71
2022/04/23 06:38:40;;;;;;;37.00;26.80;;;;;;;-145.18;100.00;46521.72;5010674;28;20049;-71
2022/04/23 06:41:05;;;;;;;36.20;26.47;;;;;;;-145.18;100.00;46531.47;4993386;28;20030;-71
2022/04/23 06:43:31;;;;;;;34.77;25.80;;;;;;;-145.18;100.00;46527.56;5011027;28;20034;-71
2022/04/23 06:45:57;;;;;;;32.20;25.03;;;;;;;-145.18;100.00;46537.34;5010523;28;20562;-71
2022/04/23 06:48:22;;;;;;;35.03;24.80;;;;;;;-145.18;100.00;46531.47;5010022;28;20034;-71
2022/04/23 06:50:48;;;;;;;35.00;27.07;;;;;;;-145.18;100.00;46535.38;5010570;28;20279;-71
2022/04/23 06:53:13;;;;;;;35.30;24.73;;;;;;;-145.18;100.00;46533.44;5010535;28;20064;-71
2022/04/23 06:55:39;;;;;;;32.33;24.73;;;;;;;-145.18;100.00;46535.38;5010873;28;20034;-71
2022/04/23 06:58:04;;;;;;;30.87;21.37;;;;;;;-145.18;100.00;46539.28;5010172;28;20034;-71
2022/04/23 07:00:30;;;;;;;30.80;24.10;;;;;;;-145.18;100.00;46539.28;5011122;28;20046;-71
2022/04/23 07:02:55;;;;;;;32.40;25.33;;;;;;;-145.18;100.00;46545.16;5009819;28;20391;-71
2022/04/23 07:05:21;;;;;;;34.23;26.17;;;;;;;-145.18;100.00;46539.28;5010609;28;20410;-71
2022/04/23 07:07:55;;;;;;;32.70;25.17;;;;;;;-145.18;100.00;46547.09;5010506;28;20040;-71
2022/04/23 07:10:21;;;;;;;28.63;24.50;;;;;;;-145.18;100.00;46547.09;5010426;28;20030;-71
2022/04/23 07:12:46;;;;;;;29.10;22.03;;;;;;;-145.18;100.00;46545.16;5010396;28;20404;-71
2022/04/23 07:15:11;;;;;;;29.37;22.03;;;;;;;-145.18;100.00;46556.88;5010529;28;20037;-71
2022/04/23 07:17:37;;;;;;;31.97;24.40;;;;;;;-145.18;100.00;46543.19;5010654;28;20030;-71
2022/04/23 07:20:03;;;;;;;30.80;23.20;;;;;;;-145.18;100.00;46549.06;5010047;28;20487;-71
2022/04/23 07:22:28;;;;;;;32.50;24.90;;;;;;;-145.18;100.00;46547.09;5010778;28;20149;-71
2022/04/23 07:24:54;;;;;;;31.03;23.40;;;;;;;-145.18;100.00;46543.19;5008739;28;20034;-71
2022/04/23 07:27:19;;;;;;;33.30;23.10;;;;;;;-145.18;100.00;46547.09;5009628;28;20049;-71
2022/04/23 07:29:44;;;;;;;31.60;24.27;;;;;;;-145.18;100.00;46541.25;5007715;28;20048;-71
2022/04/23 07:32:10;;;;;;;30.40;24.00;;;;;;;-145.18;100.00;46552.97;5009640;28;20048;-71
2022/04/23 07:37:28;;;;;;;33.43;23.63;;;;;;;-145.18;100.00;46549.06;5008074;28;20693;-71
2022/04/23 07:39:56;;;;;;;30.13;23.73;;;;;;;-145.18;100.00;46547.09;5009719;28;20371;-71
2022/04/23 07:42:22;;;;;;;35.23;24.97;;;;;;;-145.18;100.00;46543.19;5010252;28;20038;-71
2022/04/23 07:44:47;;;;;;;34.47;23.23;;;;;;;-145.18;100.00;46554.91;5008057;28;20494;-71
2022/04/23 07:47:13;;;;;;;34.07;22.10;;;;;;;-145.18;100.00;46545.16;5010015;28;20042;-71
2022/04/23 07:49:38;;;;;;;29.20;23.80;;;;;;;-145.18;100.00;46554.91;5008791;28;20029;-71
2022/04/23 07:52:04;;;;;;;31.27;23.73;;;;;;;-145.18;100.00;46566.63;5009142;28;20494;-71
2022/04/23 07:54:29;;;;;;;35.87;22.37;;;;;;;-145.18;100.00;46545.16;5008199;28;20019;-71
2022/04/23 07:56:55;;;;;;;31.23;23.13;;;;;;;-145.18;100.00;46552.97;4981715;28;20117;-71
2022/04/23 07:59:21;;;;;;;29.97;22.20;;;;;;;-145.18;100.00;46562.72;4971283;28;20647;-71
2022/04/23 08:01:47;;;;;;;28.50;22.73;;;;;;;-145.18;100.00;46562.72;4989552;28;20034;-71
2022/04/23 08:04:12;;;;;;;32.93;22.93;;;;;;;-145.18;100.00;46582.25;4998459;28;20058;-71
2022/04/23 08:06:38;;;;;;;30.97;21.70;;;;;;;-145.18;100.00;46549.06;5009980;28;20331;-71
2022/04/23 08:09:03;;;;;;;28.00;20.73;;;;;;;-145.18;100.00;46568.59;4991636;28;20058;-71
2022/04/23 08:11:29;;;;;;;28.80;20.63;;;;;;;-145.18;100.00;46568.59;5009913;28;20038;-71
2022/04/23 08:13:55;;;;;;;26.97;20.63;;;;;;;-145.18;100.00;46584.22;5009272;28;20088;-71
2022/04/23 08:16:21;;;;;;;24.70;20.97;;;;;;;-145.18;100.00;46595.94;5010001;28;20072;-71
2022/04/23 08:18:46;;;;;;;29.93;20.00;;;;;;;-145.18;100.00;46582.25;5009115;28;20034;-71
2022/04/23 08:21:11;;;;;;;26.03;19.67;;;;;;;-145.18;100.00;46609.59;5009170;28;20042;-71
2022/04/23 08:23:37;;;;;;;30.27;22.30;;;;;;;-145.18;100.00;46605.69;5009405;28;20045;-71
2022/04/23 08:26:03;;;;;;;27.17;21.17;;;;;;;-145.18;100.00;46615.47;5009337;28;20113;-71
2022/04/23 08:31:12;;;;;;;33.83;21.83;;;;;;;-145.18;100.00;46609.59;5009718;28;20041;-71
2022/04/23 08:36:22;;;;;;;28.70;19.80;;;;;;;-145.18;100.00;46615.47;5009482;28;20064;-71
2022/04/23 08:38:48;;;;;;;26.57;21.37;;;;;;;-145.18;100.00;46580.31;4991353;28;20058;-71
2022/04/23 08:41:13;;;;;;;27.83;21.17;;;;;;;-145.18;100.00;46613.50;5008037;28;20037;-71
2022/04/23 08:43:42;;;;;;;28.07;19.10;;;;;;;-145.18;100.00;46584.22;5008180;28;20125;-71
2022/04/23 08:46:08;;;;;;;28.87;19.93;;;;;;;-145.18;100.00;46599.84;5009741;28;20057;-71
2022/04/23 08:48:38;;;;;;;25.87;18.93;;;;;;;-145.18;100.00;46656.50;5010819;28;20092;-71
2022/04/23 08:51:05;;;;;;;27.40;21.23;;;;;;;-145.18;100.00;46611.56;5012894;28;20386;-71
2022/04/23 08:53:34;;;;;;;27.20;20.27;;;;;;;-145.18;100.00;46621.31;5013214;28;20332;-71
2022/04/23 08:56:01;;;;;;;26.80;19.07;;;;;;;-145.18;100.00;46806.91;5012837;28;20048;-71
2022/04/23 08:58:26;;;;;;;24.47;18.97;;;;;;;-145.18;100.00;47045.22;5012187;28;20018;-71
2022/04/23 09:00:51;;;;;;;26.80;19.60;;;;;;;-145.18;100.00;46849.88;5012627;28;20033;-71
2022/04/23 09:03:17;;;;;;;27.20;19.47;;;;;;;-145.18;100.00;46771.75;4994248;28;20506;-71
2022/04/23 09:05:44;;;;;;;38.77;23.17;;;;;;;-145.18;100.00;46820.56;4994796;28;20040;-72
2022/04/23 09:08:09;;;;;;;28.47;20.20;;;;;;;-145.18;100.00;47004.19;5011814;28;20032;-71
2022/04/23 09:10:43;;;;;;;26.27;20.37;;;;;;;-145.18;100.00;47101.88;5010699;28;20033;-71
2022/04/23 09:13:09;;;;;;;28.63;20.20;;;;;;;-145.18;100.00;47201.50;5010954;28;20056;-71
2022/04/23 09:24:10;;;;;;;27.30;21.70;;;;;;;-145.18;100.00;47125.31;5011955;28;20060;-72
2022/04/23 09:26:40;;;;;;;29.43;20.13;;;;;;;-145.18;100.00;47207.38;5011234;28;20478;-71
2022/04/23 09:29:18;;;;;;;28.77;21.27;;;;;;;-145.18;100.00;47181.97;4993522;28;20101;-71
2022/04/23 09:31:44;;;;;;;27.70;21.23;;;;;;;-145.18;100.00;47193.69;5012270;28;20506;-72
2022/04/23 09:34:17;;;;;;;31.17;21.57;;;;;;;-145.18;100.00;47209.31;5011664;28;20026;-71
2022/04/23 09:36:50;;;;;;;28.37;20.37;;;;;;;-145.18;100.00;47168.28;5011808;28;20026;-71
2022/04/23 09:39:38;;;;;;;31.07;22.17;;;;;;;-145.18;100.00;47152.66;4993793;28;20437;-71
2022/04/23 09:42:12;;;;;;;25.23;21.17;;;;;;;-145.18;100.00;47121.41;5012065;28;20430;-71
2022/04/23 09:44:38;;;;;;;24.57;21.10;;;;;;;-145.18;100.00;47109.69;5011496;28;20034;-72
2022/04/23 09:47:04;;;;;;;26.10;21.23;;;;;;;-145.18;100.00;47142.91;5011696;28;20057;-71
2022/04/23 09:49:29;;;;;;;26.93;21.53;;;;;;;-145.18;100.00;47166.34;5011752;28;20406;-72
2022/04/23 09:52:09;;;;;;;29.27;20.27;;;;;;;-145.18;100.00;47139.00;5011878;28;20065;-72
2022/04/23 09:54:36;;;;;;;35.23;21.37;;;;;;;-145.18;100.00;47178.06;5011369;28;20083;-72
2022/04/23 09:57:03;;;;;;;26.27;17.50;;;;;;;-145.18;100.00;47164.38;5011623;28;20030;-72
2022/04/23 09:59:28;;;;;;;28.53;19.73;;;;;;;-145.18;100.00;47191.75;5010700;28;20034;-72
2022/04/23 10:01:55;;;;;;;24.83;19.63;;;;;;;-145.18;100.00;47183.94;5011814;28;20093;-72
2022/04/23 10:04:29;;;;;;;27.97;21.90;;;;;;;-145.18;100.00;47125.31;5011554;28;20054;-71
2022/04/23 10:06:56;;;;;;;25.37;21.13;;;;;;;-145.18;100.00;47123.38;5011277;28;20272;-71
2022/04/23 10:09:26;;;;;;;24.40;20.17;;;;;;;-145.18;100.00;47152.66;5011311;28;20037;-72
2022/04/23 10:12:19;;;;;;;27.23;20.50;;;;;;;-145.18;100.00;47180.03;5011366;28;20037;-72
2022/04/23 10:14:59;;;;;;;27.77;19.73;;;;;;;-145.18;100.00;47176.09;5006680;28;20041;-71
2022/04/23 10:17:25;;;;;;;28.83;21.70;;;;;;;-145.18;100.00;47111.66;5011681;28;20491;-71
2022/04/23 10:19:51;;;;;;;28.13;20.93;;;;;;;-145.18;100.00;47154.63;4993550;28;20126;-71
2022/04/23 10:22:51;;;;;;;27.60;22.57;;;;;;;-145.18;100.00;47092.09;5011077;28;20132;-71
2022/04/23 10:25:25;;;;;;;27.40;21.90;;;;;;;-145.18;100.00;47088.19;5010924;28;20053;-71
2022/04/23 10:27:54;;;;;;;27.67;22.00;;;;;;;-145.18;100.00;47094.06;5011228;28;20018;-72
2022/04/23 10:30:19;;;;;;;26.93;21.37;;;;;;;-145.18;100.00;47144.84;5004937;28;20034;-72
2022/04/23 10:32:45;;;;;;;26.17;21.43;;;;;;;-145.18;100.00;47113.59;5007004;28;20635;-72
2022/04/23 10:35:16;;;;;;;31.17;21.67;;;;;;;-145.18;100.00;47078.44;5009885;28;20034;-72
2022/04/23 10:37:42;;;;;;;29.67;22.13;;;;;;;-145.18;100.00;47097.97;5010527;28;20497;-72
2022/04/23 10:40:10;;;;;;;28.17;21.47;;;;;;;-145.18;100.00;47086.25;5010443;28;20053;-71
2022/04/23 10:42:38;;;;;;;24.87;20.73;;;;;;;-145.18;100.00;47080.38;5008672;28;20033;-71
2022/04/23 10:45:05;;;;;;;28.13;21.77;;;;;;;-145.18;100.00;47070.63;5009794;28;20060;-71
2022/04/23 10:47:32;;;;;;;30.73;21.97;;;;;;;-145.18;100.00;47055.00;5010724;28;20018;-71
2022/04/23 10:50:18;;;;;;;28.07;21.00;;;;;;;-145.18;100.00;47125.31;5009862;28;20029;-71
2022/04/23 10:52:44;;;;;;;31.90;21.95;;;;;;;-145.18;100.00;47127.28;5010487;28;20026;-71
2022/04/23 10:55:11;;;;;;;26.47;21.07;;;;;;;-145.18;100.00;47125.31;5010467;28;20030;-74
2022/04/23 10:57:40;;;;;;;30.00;20.93;;;;;;;-145.18;100.00;47105.78;5010712;28;20151;-72
2022/04/23 11:00:15;;;;;;;29.23;20.93;;;;;;;-145.18;100.00;47135.09;5010522;28;20398;-71
2022/04/23 11:02:41;;;;;;;29.13;21.80;;;;;;;-145.18;100.00;47101.88;5010303;28;20058;-72
2022/04/23 11:13:57;;;;;;;27.07;21.20;;;;;;;-145.18;100.00;47080.38;5009810;28;20048;-72
2022/04/23 11:16:25;;;;;;;29.33;19.73;;;;;;;-145.18;100.00;47082.34;5009710;28;20057;-72
2022/04/23 11:18:52;;;;;;;26.40;21.87;;;;;;;-145.18;100.00;47072.56;4999734;28;20038;-73
2022/04/23 11:21:29;;;;;;;29.60;23.07;;;;;;;-145.18;100.00;47117.50;4994741;28;20046;-72
2022/04/23 11:24:02;;;;;;;29.10;21.40;;;;;;;-145.18;100.00;47084.28;4997938;28;20049;-72
2022/04/23 11:26:47;;;;;;;27.53;20.57;;;;;;;-145.18;100.00;47049.13;4997137;28;20068;-72
2022/04/23 11:29:14;;;;;;;25.37;20.70;;;;;;;-145.18;100.00;47074.53;4996302;28;20475;-72
2022/04/23 11:31:40;;;;;;;26.80;22.23;;;;;;;-145.18;100.00;47033.50;5000615;28;20093;-72
2022/04/23 11:34:05;;;;;;;25.97;21.73;;;;;;;-145.18;100.00;47053.03;4997708;28;20441;-72
2022/04/23 11:36:35;;;;;;;25.93;21.03;;;;;;;-145.18;100.00;47031.53;5003221;28;20096;-72
2022/04/23 11:39:09;;;;;;;31.70;21.23;;;;;;;-145.18;100.00;47055.00;5000777;28;20075;-72
2022/04/23 11:41:53;;;;;;;31.57;22.87;;;;;;;-145.18;100.00;47043.28;5003307;28;20045;-72
2022/04/23 11:44:45;;;;;;;26.63;21.30;;;;;;;-145.18;100.00;47051.09;4992317;28;20042;-72
2022/04/23 11:47:13;;;;;;;25.47;20.53;;;;;;;-145.18;100.00;47043.28;4998948;28;20037;-72
2022/04/23 11:49:38;;;;;;;27.77;20.47;;;;;;;-145.18;100.00;47051.09;5007720;28;20034;-72
2022/04/23 11:52:08;;;;;;;27.70;22.40;;;;;;;-145.18;100.00;47047.19;5009513;28;20171;-72
2022/04/23 11:54:35;;;;;;;29.33;22.07;;;;;;;-145.18;100.00;47039.34;5009857;28;20034;-72
2022/04/23 11:57:01;;;;;;;25.53;20.07;;;;;;;-145.18;100.00;47031.53;5009550;28;20041;-72
2022/04/23 11:59:36;;;;;;;26.53;21.60;;;;;;;-145.18;100.00;47043.28;5009819;28;20490;-72
2022/04/23 12:02:01;;;;;;;30.20;21.38;;;;;;;-145.18;100.00;47021.78;5009850;28;20536;-72
2022/04/23 12:04:40;;;;;;;27.53;21.17;;;;;;;-145.18;100.00;47017.88;5009508;28;20050;-72
2022/04/23 12:07:05;;;;;;;26.37;20.27;;;;;;;-145.18;100.00;47010.06;5009998;28;20411;-72
2022/04/23 12:09:31;;;;;;;29.20;22.10;;;;;;;-145.18;100.00;47008.09;5009820;28;20041;-72
2022/04/23 12:11:59;;;;;;;31.10;22.63;;;;;;;-145.18;100.00;46994.44;5009275;28;20513;-72
2022/04/23 12:14:25;;;;;;;33.47;23.00;;;;;;;-145.18;100.00;47070.63;5009067;28;20030;-72
2022/04/23 12:16:50;;;;;;;27.43;21.40;;;;;;;-145.18;100.00;47019.81;5009203;28;20030;-71
2022/04/23 12:19:17;;;;;;;27.30;21.07;;;;;;;-145.18;100.00;47029.59;5009220;28;20170;-72
2022/04/23 12:21:58;;;;;;;29.00;22.30;;;;;;;-145.18;100.00;47000.28;5009271;28;20053;-72
2022/04/23 12:24:31;;;;;;;24.70;20.03;;;;;;;-145.18;100.00;47023.72;5012898;28;20394;-72
2022/04/23 12:27:04;;;;;;;26.63;21.33;;;;;;;-145.18;100.00;47035.44;5013682;28;20038;-72
2022/04/23 12:40:47;;;;;;;30.13;22.03;;;;;;;-145.18;100.00;47035.44;5010991;28;20398;-72
2022/04/23 12:43:29;;;;;;;27.37;20.63;;;;;;;-145.18;100.00;47021.78;5012929;28;20025;-72
2022/04/23 12:46:05;;;;;;;26.70;20.20;;;;;;;-145.18;100.00;47017.88;5012076;28;20073;-72
2022/04/23 12:48:33;;;;;;;28.13;21.37;;;;;;;-145.18;100.00;47013.97;5013850;28;20096;-72
2022/04/23 12:51:06;;;;;;;32.73;20.27;;;;;;;-145.18;100.00;47008.09;4995272;28;20022;-72
2022/04/23 12:53:33;;;;;;;26.87;21.83;;;;;;;-145.18;100.00;47008.09;5013620;28;20046;-72
2022/04/23 12:56:00;;;;;;;28.07;21.03;;;;;;;-145.18;100.00;47023.72;5012838;28;20097;-72
2022/04/23 12:58:29;;;;;;;24.30;20.27;;;;;;;-145.18;100.00;47021.78;5013606;28;20064;-72
2022/04/23 13:00:54;;;;;;;25.17;18.87;;;;;;;-145.18;100.00;46996.38;5012738;28;20172;-72
2022/04/23 13:05:53;;;;;;;25.87;18.80;;;;;;;-145.18;100.00;47015.91;5012418;28;20048;-73
2022/04/23 13:13:47;;;;;;;22.73;18.57;;;;;;;-145.18;100.00;47058.91;5012926;28;20510;-72
2022/04/23 13:16:12;;;;;;;24.03;19.17;;;;;;;-145.18;100.00;47039.34;5012359;28;20113;-72
2022/04/23 13:18:38;;;;;;;26.17;18.23;;;;;;;-145.18;100.00;47023.72;5011566;28;20393;-72
2022/04/23 13:21:05;;;;;;;24.60;18.97;;;;;;;-145.18;100.00;47017.88;5012325;28;20042;-72
2022/04/23 13:23:31;;;;;;;22.20;18.03;;;;;;;-145.18;100.00;47023.72;5012777;28;20532;-72
2022/04/23 13:25:57;;;;;;;23.27;17.67;;;;;;;-145.18;100.00;47015.91;5012063;28;20057;-72
2022/04/23 13:28:23;;;;;;;21.53;17.20;;;;;;;-145.18;100.00;46988.56;5012914;28;20450;-72
2022/04/23 13:30:49;;;;;;;23.50;18.97;;;;;;;-145.18;100.00;47035.44;5012159;28;20034;-72
2022/04/23 13:33:14;;;;;;;22.33;18.47;;;;;;;-145.18;100.00;47082.34;5012429;28;20052;-72
2022/04/23 13:35:39;;;;;;;25.23;19.40;;;;;;;-145.18;100.00;47096.00;5012070;28;20089;-72
2022/04/23 13:38:08;;;;;;;24.93;19.30;;;;;;;-145.18;100.00;47082.34;5012735;28;20461;-72
2022/04/23 13:40:33;;;;;;;26.57;18.40;;;;;;;-145.18;100.00;47058.91;4994959;28;20036;-71
2022/04/23 13:42:59;;;;;;;27.07;19.73;;;;;;;-145.18;100.00;47086.25;4994022;28;20026;-72